aviador You're here:

SBCG Decoded Metar

CAMPO GRANDE in BRAZIL
Report Time2018-04-27 02:00:00
UTC Time2018-04-27 03:01:53
Flight Rules vfr VFR
Wind070° at 07 kt
W.Decomp.*RWY 06: 6.3 kt HW 3.1 kt RCW
W.Rank070° ranks 1
Current wind is below 070° avg. (8.5)
Visibility9999 m
Phenomena:N/A
Clouds:N/A
Expected CloudBase > 2,000 ft AGL from Temp-Dew spread
CeilingNone
Temp22°C (ISA +11)
Dew Point17°C (73% RH)
AAT21.8°C
QNH1016 hPa
Density Alt3,264 ft
Elevation1,860 ft
Report Wrong Elevation
Raw Report
METAR SBCG 270200Z 07007KT CAVOK 22/17 Q1016=

Extra information for SBCG:More info

Metar Taf Metar & Taf Last 4 Metars F.Rules Stats Wind Profile Meteogram Temp Stats Airport Information Weather charts Add Link Nearby VenuesMetar ALERT Operation Metar Decoded Social comments